createdAt,value
2023-05-16T00:00:01.795Z,100958.97
2023-05-16T00:02:31.500Z,100958.97
2023-05-16T00:04:58.307Z,100954.06
2023-05-16T00:07:25.103Z,100952.44
2023-05-16T00:09:52.000Z,100946.03
2023-05-16T00:12:19.870Z,100946.03
2023-05-16T00:14:48.058Z,100947.53
2023-05-16T00:17:17.678Z,100952.28
2023-05-16T00:19:44.771Z,100945.88
2023-05-16T00:22:11.843Z,100953.13
2023-05-16T00:24:39.494Z,100955.41
2023-05-16T00:27:06.813Z,100953.78
2023-05-16T00:29:35.176Z,100943.78
2023-05-16T00:32:01.828Z,100950.19
2023-05-16T00:34:28.630Z,100955.28
2023-05-16T00:36:55.455Z,100956.09
2023-05-16T00:39:22.200Z,100949.34
2023-05-16T00:41:49.175Z,100950.03
2023-05-16T00:44:15.992Z,100949.56
2023-05-16T00:46:43.626Z,100956.75
2023-05-16T00:49:12.289Z,100957.94
2023-05-16T00:51:39.610Z,100957.44
2023-05-16T00:54:07.340Z,100958.25
2023-05-16T00:56:34.781Z,100956.63
2023-05-16T00:59:01.715Z,100964.19
2023-05-16T01:01:28.632Z,100967.44
2023-05-16T01:03:55.951Z,100963.72
2023-05-16T01:06:23.034Z,100958.94
2023-05-16T01:08:49.998Z,100960.94
2023-05-16T01:11:28.394Z,100960.44
2023-05-16T01:14:36.529Z,100953.22
2023-05-16T01:17:19.162Z,100960.78
2023-05-16T01:20:15.773Z,100952.41
2023-05-16T01:23:03.776Z,100953.22
2023-05-16T01:25:39.312Z,100960.28
2023-05-16T01:28:08.094Z,100957.03
2023-05-16T01:30:39.128Z,100965.06
2023-05-16T01:33:06.263Z,100963.44
2023-05-16T01:35:33.893Z,100965.75
2023-05-16T01:38:06.536Z,100971.78
2023-05-16T01:40:56.207Z,100974.91
2023-05-16T01:43:34.478Z,100974.13
2023-05-16T01:46:10.914Z,100972.13
2023-05-16T01:48:47.520Z,100976.09
2023-05-16T01:51:14.465Z,100972.81
2023-05-16T01:53:42.405Z,100980.38
2023-05-16T01:56:15.324Z,100983.16
2023-05-16T01:58:43.565Z,100979.88
2023-05-16T02:01:11.711Z,100981.50
2023-05-16T02:03:38.675Z,100992.19
2023-05-16T02:06:07.424Z,101000.56
2023-05-16T02:08:34.148Z,100997.28
2023-05-16T02:11:00.985Z,100998.94
2023-05-16T02:13:27.744Z,100991.69
2023-05-16T02:15:54.615Z,100997.28
2023-05-16T02:18:23.600Z,100999.59
2023-05-16T02:20:50.684Z,100995.66
2023-05-16T02:23:17.379Z,100995.50
2023-05-16T02:25:44.069Z,101001.25
2023-05-16T02:28:11.090Z,101004.72
2023-05-16T02:30:37.883Z,101007.50
2023-05-16T02:33:04.920Z,101004.72
2023-05-16T02:35:31.713Z,101013.91
2023-05-16T02:38:00.009Z,101009.81
2023-05-16T02:40:26.736Z,101012.59
2023-05-16T02:42:53.453Z,101017.69
2023-05-16T02:45:20.067Z,101015.72
2023-05-16T02:47:46.975Z,101025.72
2023-05-16T02:50:13.872Z,101032.81
2023-05-16T02:52:41.008Z,101030.34
2023-05-16T02:57:37.963Z,101031.97
2023-05-16T03:00:06.337Z,101036.25
2023-05-16T03:02:33.413Z,101036.72
2023-05-16T03:05:00.161Z,101036.25
2023-05-16T03:07:26.934Z,101042.97
2023-05-16T03:09:53.876Z,101045.78
2023-05-16T03:12:20.711Z,101042.97
2023-05-16T03:14:47.392Z,101047.25
2023-05-16T03:17:14.031Z,101043.66
2023-05-16T03:19:40.780Z,101049.22
2023-05-16T03:22:07.474Z,101043.16
2023-05-16T03:24:34.244Z,101044.31
2023-05-16T03:27:01.248Z,101051.53
2023-05-16T03:29:27.940Z,101049.88
2023-05-16T03:31:55.251Z,101050.72
2023-05-16T03:34:22.821Z,101044.31
2023-05-16T03:36:50.256Z,101046.28
2023-05-16T03:39:17.490Z,101061.41
2023-05-16T03:41:44.542Z,101057.78
2023-05-16T03:44:11.359Z,101068.47
2023-05-16T03:46:38.314Z,101065.16
2023-05-16T03:49:05.067Z,101062.06
2023-05-16T03:51:31.901Z,101069.13
2023-05-16T03:53:58.736Z,101071.91
2023-05-16T03:56:26.154Z,101069.59
2023-05-16T03:58:52.839Z,101076.66
2023-05-16T04:01:19.545Z,101075.84
2023-05-16T04:03:46.330Z,101079.13
2023-05-16T04:06:13.665Z,101084.22
2023-05-16T04:08:41.177Z,101096.50
2023-05-16T04:11:07.898Z,101096.03
2023-05-16T04:13:34.680Z,101093.25
2023-05-16T04:16:01.535Z,101094.25
2023-05-16T04:18:28.295Z,101100.16
2023-05-16T04:20:55.072Z,101094.56
2023-05-16T04:23:21.702Z,101095.19
2023-05-16T04:25:48.408Z,101108.81
2023-05-16T04:28:15.732Z,101111.31
2023-05-16T04:30:42.765Z,101111.94
2023-05-16T04:33:09.720Z,101111.75
2023-05-16T04:35:37.789Z,101114.91
2023-05-16T04:38:04.794Z,101110.47
2023-05-16T04:40:31.560Z,101117.69
2023-05-16T04:42:58.398Z,101125.06
2023-05-16T04:45:25.262Z,101126.06
2023-05-16T04:47:52.319Z,101129.50
2023-05-16T04:50:19.068Z,101137.03
2023-05-16T04:52:45.782Z,101134.59
2023-05-16T04:55:12.461Z,101139.00
2023-05-16T04:57:39.436Z,101132.47
2023-05-16T05:00:11.985Z,101141.78
2023-05-16T05:02:39.268Z,101142.97
2023-05-16T05:05:07.046Z,101154.13
2023-05-16T05:07:34.204Z,101149.00
2023-05-16T05:10:01.222Z,101151.59
2023-05-16T05:12:28.098Z,101157.34
2023-05-16T05:14:54.894Z,101160.28
2023-05-16T05:17:23.567Z,101162.72
2023-05-16T05:19:50.538Z,101160.44
2023-05-16T05:22:17.642Z,101159.78
2023-05-16T05:24:44.358Z,101157.75
2023-05-16T05:27:11.007Z,101152.34
2023-05-16T05:29:37.786Z,101165.22
2023-05-16T05:32:04.999Z,101162.09
2023-05-16T05:34:32.110Z,101168.84
2023-05-16T05:36:59.164Z,101170.66
2023-05-16T05:39:26.421Z,101173.44
2023-05-16T05:41:53.086Z,101180.16
2023-05-16T05:44:19.785Z,101177.38
2023-05-16T05:46:46.930Z,101180.81
2023-05-16T05:49:14.001Z,101184.13
2023-05-16T05:51:41.134Z,101182.47
2023-05-16T05:54:08.303Z,101180.81
2023-05-16T05:56:35.465Z,101183.63
2023-05-16T05:59:02.263Z,101188.06
2023-05-16T06:04:17.877Z,101196.13
2023-05-16T06:06:44.930Z,101197.25
2023-05-16T06:09:12.780Z,101195.78
2023-05-16T06:11:39.974Z,101199.38
2023-05-16T06:14:06.824Z,101197.25
2023-05-16T06:16:33.854Z,101200.53
2023-05-16T06:19:00.954Z,101194.78
2023-05-16T06:21:28.279Z,101202.00
2023-05-16T06:23:55.228Z,101207.28
2023-05-16T06:26:28.540Z,101207.28
2023-05-16T06:28:55.558Z,101209.25
2023-05-16T06:31:22.549Z,101214.66
2023-05-16T06:33:49.719Z,101214.00
2023-05-16T06:36:16.652Z,101223.03
2023-05-16T06:38:43.708Z,101219.75
2023-05-16T06:41:10.646Z,101215.47
2023-05-16T06:43:37.599Z,101214.97
2023-05-16T06:46:04.456Z,101212.19
2023-05-16T06:48:31.636Z,101213.66
2023-05-16T06:50:58.666Z,101215.31
2023-05-16T06:53:26.395Z,101208.91
2023-05-16T06:55:53.834Z,101213.81
2023-05-16T06:58:20.877Z,101214.16
2023-05-16T07:00:50.429Z,101219.09
2023-05-16T07:03:17.393Z,101217.75
2023-05-16T07:05:44.381Z,101212.53
2023-05-16T07:08:12.358Z,101214.97
2023-05-16T07:10:39.923Z,101227.47
2023-05-16T07:13:07.337Z,101225.81
2023-05-16T07:15:36.793Z,101225.81
2023-05-16T07:18:03.908Z,101222.19
2023-05-16T07:20:30.954Z,101222.66
2023-05-16T07:23:01.639Z,101223.66
2023-05-16T07:25:29.338Z,101213.34
2023-05-16T07:27:58.464Z,101219.75
2023-05-16T07:30:25.789Z,101218.91
2023-05-16T07:32:52.761Z,101217.28
2023-05-16T07:35:19.711Z,101224.50
2023-05-16T07:37:46.526Z,101223.66
2023-05-16T07:40:14.612Z,101228.91
2023-05-16T07:42:41.585Z,101226.13
2023-05-16T07:45:11.310Z,101225.16
2023-05-16T07:47:38.350Z,101232.38
2023-05-16T07:50:05.620Z,101235.66
2023-05-16T07:52:32.409Z,101235.19
2023-05-16T07:54:59.367Z,101225.47
2023-05-16T07:57:27.316Z,101234.84
2023-05-16T07:59:54.431Z,101241.88
2023-05-16T08:02:24.856Z,101231.03
2023-05-16T08:04:52.116Z,101240.75
2023-05-16T08:07:19.007Z,101233.84
2023-05-16T08:09:48.417Z,101241.41
2023-05-16T08:12:15.430Z,101239.75
2023-05-16T08:14:42.370Z,101243.69
2023-05-16T08:17:09.156Z,101238.63
2023-05-16T08:19:36.303Z,101249.25
2023-05-16T08:22:05.595Z,101235.31
2023-05-16T08:24:32.548Z,101241.41
2023-05-16T08:26:59.362Z,101240.25
2023-05-16T08:29:26.743Z,101237.28
2023-05-16T08:31:53.753Z,101237.78
2023-05-16T08:34:20.814Z,101242.53
2023-05-16T08:36:48.207Z,101240.25
2023-05-16T08:39:15.253Z,101236.97
2023-05-16T08:41:42.088Z,101237.25
2023-05-16T08:44:10.514Z,101245.31
2023-05-16T08:46:39.353Z,101244.66
2023-05-16T08:49:08.084Z,101239.41
2023-05-16T08:51:35.703Z,101230.38
2023-05-16T08:54:09.873Z,101234.66
2023-05-16T08:56:38.329Z,101231.38
2023-05-16T08:59:05.152Z,101226.13
2023-05-16T09:01:32.709Z,101236.63
2023-05-16T09:04:00.921Z,101231.69
2023-05-16T09:06:28.409Z,101233.34
2023-05-16T09:08:56.495Z,101231.38
2023-05-16T09:11:23.901Z,101238.09
2023-05-16T09:13:51.159Z,101236.97
2023-05-16T09:16:22.243Z,101230.72
2023-05-16T09:18:57.946Z,101244.50
2023-05-16T09:21:32.081Z,101241.22
2023-05-16T09:24:06.604Z,101241.22
2023-05-16T09:26:38.739Z,101241.22
2023-05-16T09:29:14.744Z,101240.88
2023-05-16T09:31:41.743Z,101234.47
2023-05-16T09:34:11.422Z,101242.84
2023-05-16T09:36:42.108Z,101238.94
2023-05-16T09:39:11.466Z,101235.66
2023-05-16T09:41:43.871Z,101244.50
2023-05-16T09:44:15.557Z,101239.59
2023-05-16T09:46:43.232Z,101230.72
2023-05-16T09:49:18.811Z,101245.16
2023-05-16T09:51:46.541Z,101242.84
2023-05-16T09:54:13.427Z,101236.31
2023-05-16T09:56:50.837Z,101237.97
2023-05-16T09:59:22.105Z,101242.84
2023-05-16T10:01:51.553Z,101241.22
2023-05-16T10:04:20.960Z,101237.25
2023-05-16T10:06:54.924Z,101239.88
2023-05-16T10:09:26.934Z,101238.66
2023-05-16T10:12:02.888Z,101233.09
2023-05-16T10:14:35.347Z,101231.00
2023-05-16T10:17:07.815Z,101233.66
2023-05-16T10:19:43.621Z,101233.00
2023-05-16T10:22:19.161Z,101235.94
2023-05-16T10:25:01.183Z,101234.97
2023-05-16T10:27:31.240Z,101240.38
2023-05-16T10:29:59.120Z,101246.97
2023-05-16T10:32:29.965Z,101228.41
2023-05-16T10:35:03.706Z,101240.06
2023-05-16T10:37:36.735Z,101234.97
2023-05-16T10:40:19.972Z,101218.41
2023-05-16T10:42:59.639Z,101229.06
2023-05-16T10:45:29.461Z,101228.88
2023-05-16T10:48:11.812Z,101226.78
2023-05-16T10:50:54.615Z,101219.56
2023-05-16T10:53:35.610Z,101222.81
2023-05-16T10:56:06.343Z,101221.22
2023-05-16T10:58:41.240Z,101221.22
2023-05-16T11:01:27.105Z,101229.56
2023-05-16T11:04:00.466Z,101228.41
2023-05-16T11:06:45.239Z,101217.06
2023-05-16T11:09:13.567Z,101224.78
2023-05-16T11:11:55.551Z,101214.81
2023-05-16T11:14:26.815Z,101219.56
2023-05-16T11:17:24.021Z,101220.50
2023-05-16T11:19:59.797Z,101214.28
2023-05-16T11:22:33.897Z,101211.66
2023-05-16T11:25:13.746Z,101218.22
2023-05-16T11:27:46.913Z,101217.25
2023-05-16T11:30:19.473Z,101217.72
2023-05-16T11:32:51.059Z,101218.06
2023-05-16T11:35:21.500Z,101214.13
2023-05-16T11:37:59.415Z,101213.97
2023-05-16T11:40:31.944Z,101216.09
2023-05-16T11:43:04.684Z,101211.66
2023-05-16T11:45:35.853Z,101205.41
2023-05-16T11:48:28.701Z,101207.19
2023-05-16T11:51:09.622Z,101216.34
2023-05-16T11:53:39.841Z,101221.41
2023-05-16T11:56:13.180Z,101222.25
2023-05-16T11:58:41.893Z,101215.88
2023-05-16T12:01:13.991Z,101219.03
2023-05-16T12:03:41.324Z,101212.13
2023-05-16T12:06:19.909Z,101223.31
2023-05-16T12:08:55.818Z,101213.94
2023-05-16T12:11:25.948Z,101227.22
2023-05-16T12:13:54.346Z,101222.31
2023-05-16T12:16:23.911Z,101224.28
2023-05-16T12:18:51.510Z,101224.28
2023-05-16T12:21:21.863Z,101214.59
2023-05-16T12:24:00.658Z,101217.88
2023-05-16T12:26:33.736Z,101217.41
2023-05-16T12:29:03.782Z,101211.97
2023-05-16T12:31:32.810Z,101208.34
2023-05-16T12:34:04.480Z,101211.16
2023-05-16T12:36:37.064Z,101211.16
2023-05-16T12:39:09.517Z,101205.75
2023-05-16T12:41:44.560Z,101216.25
2023-05-16T12:44:19.609Z,101211.81
2023-05-16T12:46:56.515Z,101210.31
2023-05-16T12:49:32.836Z,101211.38
2023-05-16T12:52:11.356Z,101221.72
2023-05-16T12:54:51.356Z,101216.44
2023-05-16T12:57:22.937Z,101212.16
2023-05-16T12:59:52.842Z,101207.19
2023-05-16T13:02:30.666Z,101214.22
2023-05-16T13:04:57.773Z,101209.78
2023-05-16T13:07:26.797Z,101210.91
2023-05-16T13:09:53.603Z,101210.59
2023-05-16T13:12:21.875Z,101223.31
2023-05-16T13:14:48.809Z,101221.06
2023-05-16T13:17:15.770Z,101208.91
2023-05-16T13:19:42.638Z,101224.69
2023-05-16T13:22:09.448Z,101219.75
2023-05-16T13:24:36.521Z,101223.88
2023-05-16T13:27:03.411Z,101221.25
2023-05-16T13:29:30.877Z,101216.84
2023-05-16T13:32:00.808Z,101227.19
2023-05-16T13:34:27.703Z,101229.50
2023-05-16T13:36:55.081Z,101229.97
2023-05-16T13:39:22.571Z,101236.38
2023-05-16T13:41:49.743Z,101233.91
2023-05-16T13:44:19.563Z,101223.41
2023-05-16T13:46:46.858Z,101230.16
2023-05-16T13:49:13.630Z,101225.06
2023-05-16T13:51:45.024Z,101221.78
2023-05-16T13:54:14.026Z,101229.00
2023-05-16T13:56:40.951Z,101238.53
2023-05-16T13:59:10.183Z,101238.53
2023-05-16T14:01:38.476Z,101229.00
2023-05-16T14:04:06.207Z,101237.38
2023-05-16T14:06:37.331Z,101237.81
2023-05-16T14:09:07.110Z,101234.84
2023-05-16T14:11:34.400Z,101247.50
2023-05-16T14:14:01.869Z,101244.88
2023-05-16T14:16:47.509Z,101243.38
2023-05-16T14:19:31.734Z,101261.75
2023-05-16T14:22:08.969Z,101256.31
2023-05-16T14:24:59.263Z,101255.81
2023-05-16T14:27:32.101Z,101270.94
2023-05-16T14:30:03.004Z,101263.69
2023-05-16T14:32:37.510Z,101257.63
2023-05-16T14:35:21.014Z,101263.53
2023-05-16T14:37:50.809Z,101263.66
2023-05-16T14:43:26.420Z,101262.66
2023-05-16T14:46:17.828Z,101269.75
2023-05-16T14:48:47.901Z,101276.13
2023-05-16T14:51:17.410Z,101257.44
2023-05-16T14:53:46.757Z,101277.19
2023-05-16T14:56:14.412Z,101279.19
2023-05-16T14:58:59.115Z,101272.13
2023-05-16T15:01:51.655Z,101274.94
2023-05-16T15:04:38.525Z,101281.84
2023-05-16T15:07:06.743Z,101278.53
2023-05-16T15:09:39.895Z,101288.22
2023-05-16T15:12:11.238Z,101277.88
2023-05-16T15:14:43.680Z,101280.03
2023-05-16T15:17:17.404Z,101277.59
2023-05-16T15:19:59.226Z,101279.88
2023-05-16T15:22:35.380Z,101274.28
2023-05-16T15:25:05.269Z,101272.66
2023-05-16T15:27:44.425Z,101277.44
2023-05-16T15:30:17.828Z,101274.16
2023-05-16T15:32:56.301Z,101281.03
2023-05-16T15:38:06.518Z,101277.59
2023-05-16T15:40:36.853Z,101286.78
2023-05-16T15:43:17.280Z,101296.94
2023-05-16T15:46:19.813Z,101288.75
2023-05-16T15:48:57.539Z,101281.00
2023-05-16T15:51:35.571Z,101300.34
2023-05-16T15:54:05.784Z,101294.94
2023-05-16T15:56:34.952Z,101304.78
2023-05-16T15:59:02.956Z,101304.91
2023-05-16T16:01:30.670Z,101304.78
2023-05-16T16:04:02.437Z,101307.06
2023-05-16T16:06:33.896Z,101307.38
2023-05-16T16:09:03.213Z,101304.09
2023-05-16T16:11:31.565Z,101306.22
2023-05-16T16:13:58.711Z,101300.13
2023-05-16T16:16:28.774Z,101316.03
2023-05-16T16:18:55.930Z,101305.09
2023-05-16T16:21:23.932Z,101310.56
2023-05-16T16:23:51.276Z,101298.75
2023-05-16T16:26:18.488Z,101300.56
2023-05-16T16:28:45.722Z,101308.44
2023-05-16T16:31:16.445Z,101313.03
2023-05-16T16:33:44.982Z,101312.06
2023-05-16T16:36:13.391Z,101318.47
2023-05-16T16:38:42.693Z,101318.81
2023-05-16T16:41:10.505Z,101309.44
2023-05-16T16:43:40.189Z,101315.03
2023-05-16T16:46:08.330Z,101320.78
2023-05-16T16:48:36.500Z,101322.25
2023-05-16T16:51:03.790Z,101316.69
2023-05-16T16:53:30.887Z,101321.44
2023-05-16T16:55:57.846Z,101309.28
2023-05-16T16:58:26.602Z,101322.94
2023-05-16T17:00:54.411Z,101322.94
2023-05-16T17:03:21.853Z,101331.63
2023-05-16T17:05:53.319Z,101330.78
2023-05-16T17:08:21.971Z,101336.38
2023-05-16T17:10:51.556Z,101334.38
2023-05-16T17:13:21.037Z,101324.38
2023-05-16T17:15:55.070Z,101318.91
2023-05-16T17:18:34.633Z,101332.72
2023-05-16T17:21:04.349Z,101329.56
2023-05-16T17:23:34.521Z,101336.97
2023-05-16T17:26:05.268Z,101339.25
2023-05-16T17:28:42.946Z,101330.56
2023-05-16T17:31:13.279Z,101346.78
2023-05-16T17:33:43.070Z,101342.53
2023-05-16T17:36:11.837Z,101347.97
2023-05-16T17:38:41.381Z,101349.44
2023-05-16T17:41:08.232Z,101350.38
2023-05-16T17:43:37.851Z,101344.03
2023-05-16T17:46:06.971Z,101351.94
2023-05-16T17:48:33.732Z,101351.75
2023-05-16T17:51:01.956Z,101351.75
2023-05-16T17:53:29.700Z,101346.84
2023-05-16T17:55:56.907Z,101355.09
2023-05-16T17:58:24.203Z,101354.59
2023-05-16T18:00:51.066Z,101358.38
2023-05-16T18:03:18.503Z,101358.22
2023-05-16T18:05:45.696Z,101360.84
2023-05-16T18:08:15.139Z,101364.31
2023-05-16T18:10:51.757Z,101370.72
2023-05-16T18:13:19.951Z,101360.72
2023-05-16T18:15:49.555Z,101363.00
2023-05-16T18:18:17.953Z,101350.84
2023-05-16T18:20:46.114Z,101358.06
2023-05-16T18:23:13.377Z,101361.19
2023-05-16T18:25:54.056Z,101356.28
2023-05-16T18:28:21.716Z,101362.16
2023-05-16T18:30:49.493Z,101366.97
2023-05-16T18:33:16.920Z,101373.50
2023-05-16T18:35:43.978Z,101367.09
2023-05-16T18:38:20.129Z,101359.72
2023-05-16T18:40:58.642Z,101368.59
2023-05-16T18:43:25.558Z,101362.53
2023-05-16T18:45:52.516Z,101360.56
2023-05-16T18:48:20.166Z,101366.16
2023-05-16T18:50:50.245Z,101376.13
2023-05-16T18:53:23.444Z,101383.53
2023-05-16T18:55:50.948Z,101375.00
2023-05-16T18:58:17.755Z,101378.63
2023-05-16T19:00:45.176Z,101385.34
2023-05-16T19:03:13.523Z,101382.06
2023-05-16T19:05:40.829Z,101383.06
2023-05-16T19:08:07.696Z,101390.75
2023-05-16T19:10:38.186Z,101399.47
2023-05-16T19:13:08.309Z,101394.53
2023-05-16T19:15:36.534Z,101389.59
2023-05-16T19:18:07.790Z,101392.38
2023-05-16T19:20:35.671Z,101389.44
2023-05-16T19:23:03.495Z,101391.91
2023-05-16T19:25:30.698Z,101403.72
2023-05-16T19:27:57.534Z,101396.50
2023-05-16T19:30:25.018Z,101403.53
2023-05-16T19:32:52.013Z,101403.06
2023-05-16T19:35:19.765Z,101401.75
2023-05-16T19:37:46.930Z,101394.50
2023-05-16T19:40:16.914Z,101402.88
2023-05-16T19:42:44.391Z,101403.72
2023-05-16T19:45:13.871Z,101408.00
2023-05-16T19:47:43.855Z,101413.91
2023-05-16T19:50:13.702Z,101417.88
2023-05-16T19:52:42.710Z,101423.78
2023-05-16T19:55:19.490Z,101422.28
2023-05-16T19:57:46.858Z,101422.94
2023-05-16T20:00:21.775Z,101426.72
2023-05-16T20:06:15.235Z,101432.78
2023-05-16T20:08:42.695Z,101426.91
2023-05-16T20:11:09.924Z,101425.75
2023-05-16T20:13:41.644Z,101427.91
2023-05-16T20:18:51.496Z,101434.31
2023-05-16T20:21:18.630Z,101436.63
2023-05-16T20:23:45.319Z,101431.19
2023-05-16T20:26:14.898Z,101434.28
2023-05-16T20:28:42.151Z,101446.97
2023-05-16T20:31:09.189Z,101445.66
2023-05-16T20:33:36.226Z,101451.06
2023-05-16T20:36:03.493Z,101450.41
2023-05-16T20:38:30.410Z,101452.88
2023-05-16T20:40:57.324Z,101459.28
2023-05-16T20:43:26.525Z,101461.75
2023-05-16T20:45:53.589Z,101457.47
2023-05-16T20:48:21.046Z,101456.63
2023-05-16T20:50:48.094Z,101457.94
2023-05-16T20:53:15.073Z,101464.38
2023-05-16T20:55:41.953Z,101466.03
2023-05-16T20:58:08.978Z,101467.50
2023-05-16T21:00:35.883Z,101469.78
2023-05-16T21:03:03.160Z,101470.13
2023-05-16T21:05:30.235Z,101476.22
2023-05-16T21:07:56.920Z,101469.44
2023-05-16T21:10:23.635Z,101472.41
2023-05-16T21:12:50.492Z,101475.34
2023-05-16T21:15:17.347Z,101474.88
2023-05-16T21:17:44.137Z,101481.44
2023-05-16T21:20:11.316Z,101481.75
2023-05-16T21:22:38.066Z,101482.94
2023-05-16T21:25:05.735Z,101478.00
2023-05-16T21:27:33.050Z,101481.44
2023-05-16T21:29:59.898Z,101480.13
2023-05-16T21:32:32.021Z,101481.56
2023-05-16T21:35:01.115Z,101477.47
2023-05-16T21:37:27.863Z,101486.19
2023-05-16T21:39:55.082Z,101491.28
2023-05-16T21:42:21.897Z,101482.38
2023-05-16T21:44:48.878Z,101489.94
2023-05-16T21:47:15.567Z,101496.00
2023-05-16T21:49:42.267Z,101490.75
2023-05-16T21:52:09.138Z,101506.66
2023-05-16T21:54:36.009Z,101499.09
2023-05-16T21:57:02.740Z,101496.78
2023-05-16T21:59:29.469Z,101501.22
2023-05-16T22:01:56.230Z,101500.75
2023-05-16T22:04:23.762Z,101504.19
2023-05-16T22:06:50.699Z,101501.53
2023-05-16T22:09:17.292Z,101510.41
2023-05-16T22:11:43.975Z,101511.53
2023-05-16T22:14:10.715Z,101510.41
2023-05-16T22:16:37.693Z,101511.69
2023-05-16T22:19:04.391Z,101510.03
2023-05-16T22:21:31.277Z,101508.41
2023-05-16T22:23:57.996Z,101510.69
2023-05-16T22:26:24.805Z,101507.41
2023-05-16T22:28:51.614Z,101506.91
2023-05-16T22:31:18.312Z,101512.78
2023-05-16T22:33:45.329Z,101508.03
2023-05-16T22:36:12.056Z,101510.66
2023-05-16T22:38:38.755Z,101514.28
2023-05-16T22:41:05.551Z,101524.94
2023-05-16T22:43:32.631Z,101521.00
2023-05-16T22:46:02.220Z,101513.28
2023-05-16T22:48:30.096Z,101530.03
2023-05-16T22:50:57.717Z,101530.03
2023-05-16T22:53:24.372Z,101533.94
2023-05-16T22:55:51.160Z,101530.13
2023-05-16T22:58:17.944Z,101528.50
2023-05-16T23:00:44.720Z,101520.75
2023-05-16T23:03:11.698Z,101525.72
2023-05-16T23:05:38.465Z,101527.97
2023-05-16T23:08:06.541Z,101526.34
2023-05-16T23:10:33.338Z,101537.00
2023-05-16T23:13:00.119Z,101538.13
2023-05-16T23:15:27.185Z,101538.97
2023-05-16T23:17:54.078Z,101542.69
2023-05-16T23:20:20.991Z,101533.81
2023-05-16T23:22:47.810Z,101533.34
2023-05-16T23:25:14.548Z,101536.44
2023-05-16T23:27:41.222Z,101544.50
2023-05-16T23:30:09.233Z,101544.78
2023-05-16T23:32:36.603Z,101542.63
2023-05-16T23:35:03.716Z,101539.03
2023-05-16T23:37:31.052Z,101531.81
2023-05-16T23:39:58.242Z,101535.75
2023-05-16T23:42:25.109Z,101536.38
2023-05-16T23:44:51.987Z,101543.63
2023-05-16T23:47:18.667Z,101540.34
2023-05-16T23:49:45.519Z,101536.19
2023-05-16T23:52:12.469Z,101537.53
2023-05-16T23:54:39.209Z,101549.00
2023-05-16T23:57:05.906Z,101550.47
2023-05-16T23:59:32.611Z,101553.59
